ROMMA est une association bénévole à but non lucratif. Votre soutien est indispensable : ADHERER à ROMMA ou FAIRE un DON

Le Versoud - (38, Isère)

Vallée du Grésivaudan (220 m)   Longitude: 05° 51' 44" E   Latitude: 45° 13' 06" N Station partenaire n°6
 

Détail journalier du     <<     >>

Température Humidité Pression Vent Dir Rafale Dir. rafale Ensol.
Heure (°C) (%) (hPa) (km/h) (km/h) (min)
01:00 12.59410161---15S0
02:00 11.9931016010O0
03:00 11.489101605SO0
04:00 10.790101600---0
05:00 10.192101500---0
06:00 9.793101500---0
07:00 9.794101500---0
08:00 9.194101600---0
09:00 9.094101700---0
10:00 10.988101706SO5
11:00 13.17510171---19NE60
12:00 15.16110186NE24NE60
13:00 15.95810177NE27NNE60
14:00 16.95310168NE27NE60
15:00 17.95010166NE24NE60
16:00 18.25310177NE24NE60
17:00 18.25010177NE27NE40
18:00 17.75310173NE19NE25
19:00 15.865101706NE25
20:00 14.173101800---0
21:00 13.474101900---0
22:00 12.979101902NE0
23:00 12.285102000---0
minuit 10.989102000---0

Graphique du 07-10-2019

 

Serveur OMMA